Rio Blanco — D5BO9 — position and weather

sailwx.info

Track history (hours):
 
Tides and Currents Weather Stations Pressure Air Temp Water Temp Dewpoint Dewpoint Depression Visibility Wind Speed Wind Dir Waves Ship Positions

Rio Blanco

Last reported at 2015-May-28 07:04 UTC. Time now 2015-May-28 14:07 UTC.
Position N 36°30' E 015°10'.

Length 286 m; draft 12.6 m.

Type: Ship (hazmat cat A). MMSI: 636092395.

Date/timePositionNaut miles runAvg speedWind from/ knotsBaromVisibWave heightAir tempDewpointWater temp
2015-May-28 07:04N 36°30' E 015°10'1015.6
2015-May-28 06:27N 36°33' E 014°59'919.6
2015-May-28 06:00N 36°36' E 014°48'511.6 330 / 71016.410.8 19.714.517.0
2015-May-28 05:33N 36°37' E 014°42'1615.8
2015-May-28 04:33N 36°43' E 014°24'1615.6
2015-May-28 03:33N 36°50' E 014°06'1615.5
2015-May-28 02:33N 36°57' E 013°49'1616.1
2015-May-28 01:34N 37°05' E 013°31'11215.9
2015-May-27 18:29N 37°56' E 011°26'9916.7
2015-May-27 12:33N 38°49' E 009°39'1615.9
2015-May-27 11:33N 38°58' E 009°22'1515.4
2015-May-27 10:33N 39°07' E 009°06'6 5.9
2015-May-27 09:33N 39°13' E 009°04'0 0.0
2015-May-27 08:33N 39°13' E 009°04'0 0.0
2015-May-27 07:33N 39°13' E 009°04'0 0.0
2015-May-27 06:33N 39°13' E 009°04'0 0.0
2015-May-27 05:33N 39°13' E 009°04'0 0.0
2015-May-27 04:33N 39°13' E 009°04'0 0.0
2015-May-27 03:33N 39°13' E 009°04'0 0.0
2015-May-27 02:33N 39°13' E 009°04'0 0.0
2015-May-27 01:33N 39°13' E 009°04'0 0.0
2015-May-27 00:33N 39°13' E 009°04'0 0.0
2015-May-26 23:33N 39°13' E 009°04'0 0.0
2015-May-26 22:33N 39°13' E 009°04'0 0.0
2015-May-26 21:33N 39°13' E 009°04'0 0.0
2015-May-26 20:33N 39°13' E 009°04'0 0.0
2015-May-26 19:33N 39°13' E 009°04'0 0.0
2015-May-26 18:33N 39°13' E 009°04'0 0.0
2015-May-26 17:33N 39°13' E 009°04'2 1.8
2015-May-26 16:33N 39°11' E 009°06'6 5.7
2015-May-26 15:34N 39°06' E 009°06'1615.6
2015-May-26 14:33N 38°51' E 008°59'1818.1
2015-May-26 13:33N 38°43' E 008°38'14018.5
2015-May-26 06:00N 38°00' E 005°48'20018.5 010 / 221014.510.8 21.513.919.0
2015-May-25 19:10N 37°08' E 001°44'1218.6
2015-May-25 18:32N 37°05' E 001°30'17218.8
2015-May-25 09:22N 36°17' W 001°57'1415.5
2015-May-25 08:27N 36°15' W 002°14'1414.2
2015-May-25 07:27N 36°13' W 002°32'1812.3
2015-May-25 06:00N 36°12' W 002°54'11116.6 080 / 201015.810.8 19.313.018.0
2015-May-24 23:17N 36°01' W 005°11'1217.1
2015-May-24 22:34N 35°57' W 005°26'10 0.6
2015-May-24 06:32N 35°52' W 005°36'9411.3
2015-May-23 22:14N 36°11' W 007°30'812.2
2015-May-23 21:33N 36°13' W 007°40'1312.8
2015-May-23 20:33N 36°16' W 007°55'1312.9
2015-May-23 19:33N 36°20' W 008°10'1313.1
2015-May-23 18:33N 36°23' W 008°26'1313.0
2015-May-23 17:33N 36°27' W 008°42'1312.9
2015-May-23 16:33N 36°30' W 008°57'1313.3
2015-May-23 15:34N 36°33' W 009°13'1313.2
2015-May-23 14:33N 36°41' W 009°26'1111.0
2015-May-23 13:33N 36°51' W 009°33'8 8.2
2015-May-23 12:33N 36°59' W 009°36'8 8.1
2015-May-23 11:33N 37°06' W 009°38'1111.2
2015-May-23 10:33N 37°17' W 009°41'1313.0
2015-May-23 09:33N 37°30' W 009°45'1313.3
2015-May-23 08:33N 37°43' W 009°49'1313.3
2015-May-23 07:33N 37°56' W 009°53'1313.2
2015-May-23 06:33N 38°08' W 009°56'1313.1
2015-May-23 05:33N 38°21' W 010°01'1313.1
2015-May-23 04:33N 38°34' W 010°04'1312.9
2015-May-23 03:33N 38°47' W 010°06'1312.8
2015-May-23 02:33N 38°60' W 010°06'1312.9
2015-May-23 01:33N 39°12' W 010°06'1413.2
2015-May-23 00:32N 39°26' W 010°06'1313.3
2015-May-22 23:33N 39°39' W 010°07'1313.0
2015-May-22 22:33N 39°52' W 010°07'1313.1
2015-May-22 21:33N 40°05' W 010°07'1413.4
2015-May-22 20:31N 40°19' W 010°06'1313.3
2015-May-22 19:32N 40°32' W 010°07'1613.4
2015-May-22 18:22N 40°48' W 010°07'1 1.7
2015-May-22 18:00N 40°48' W 010°06'1022.7 010 / 191022.2 5.4 16.511.615.0
2015-May-22 17:32N 40°58' W 010°07'1313.3
2015-May-22 16:33N 41°11' W 010°07'13312.6
2015-May-22 06:00N 43°24' W 009°54'47113.1 040 / 121030.410.8 15.3 8.315.0
2015-May-20 18:00N 49°48' W 003°18'4 8.3 290 / 181023.510.8 14.3 5.411.0
2015-May-20 17:28N 49°52' W 003°15'1413.0
2015-May-20 16:25N 49°58' W 002°56'1314.8
2015-May-20 15:32N 50°02' W 002°36'7213.8
2015-May-20 10:21N 50°21' W 000°48'4511.9
2015-May-20 06:33N 50°33' E 000°20'1514.9
2015-May-20 05:34N 50°38' E 000°42'1514.8
2015-May-20 04:34N 50°46' E 001°02'1413.8
2015-May-20 03:33N 50°55' E 001°19'1211.9
2015-May-20 02:33N 51°04' E 001°32'1010.3
2015-May-20 01:33N 51°12' E 001°40'1211.6
2015-May-20 00:34N 51°24' E 001°44'1414.3
2015-May-19 23:34N 51°38' E 001°45'1414.1
2015-May-19 22:33N 51°51' E 001°38'1111.4
2015-May-19 21:33N 51°42' E 001°28'1413.9
2015-May-19 20:33N 51°33' E 001°10'1110.6
2015-May-19 19:34N 51°29' E 000°54'1313.4
2015-May-19 18:34N 51°30' E 000°33'2 1.8
2015-May-19 17:33N 51°30' E 000°30'0 0.0
2015-May-19 16:32N 51°30' E 000°30'0 0.0
2015-May-19 15:32N 51°30' E 000°30'0 0.0
2015-May-19 14:32N 51°30' E 000°30'0 0.0
2015-May-19 13:32N 51°30' E 000°30'0 0.0
2015-May-19 12:32N 51°30' E 000°30'0 0.0
2015-May-19 11:32N 51°30' E 000°30'0 0.0
2015-May-19 10:32N 51°30' E 000°30'0 0.0
2015-May-19 09:32N 51°30' E 000°30'0 0.0
2015-May-19 08:32N 51°30' E 000°30'0 0.0
2015-May-19 07:32N 51°30' E 000°30'0 0.0
2015-May-19 06:29N 51°30' E 000°30'0 0.0
2015-May-19 05:32N 51°30' E 000°30'0 0.0
2015-May-19 04:32N 51°30' E 000°30'0 0.0
2015-May-19 03:32N 51°30' E 000°30'0 0.0
2015-May-19 02:32N 51°30' E 000°30'0 0.0
2015-May-19 01:32N 51°30' E 000°30'0 0.0
2015-May-19 00:32N 51°30' E 000°30'0 0.0
2015-May-18 23:32N 51°30' E 000°30'0 0.0
2015-May-18 22:32N 51°30' E 000°30'0 0.0
2015-May-18 21:32N 51°30' E 000°30'3 3.2
2015-May-18 20:33N 51°30' E 000°35'1515.4
2015-May-18 19:33N 51°29' E 000°59'1616.0
2015-May-18 18:34N 51°38' E 001°21'1515.2
2015-May-18 17:33N 51°51' E 001°35'9 8.6
2015-May-18 16:33N 51°49' E 001°48'1616.0
2015-May-18 15:34N 51°33' E 001°52'1312.6
2015-May-18 14:33N 51°24' E 002°06'1111.0
2015-May-18 13:33N 51°22' E 002°23'10 9.9
2015-May-18 12:33N 51°23' E 002°39'1 1.3
2015-May-18 11:31N 51°25' E 002°40'0 0.0
2015-May-18 10:31N 51°25' E 002°40'0 0.2
2015-May-18 09:31N 51°24' E 002°40'0 0.1
2015-May-18 08:10N 51°24' E 002°40'0 0.1
2015-May-18 07:31N 51°24' E 002°40'  
Track history (hours):
 
Tides and Currents Weather Stations Pressure Air Temp Water Temp Dewpoint Dewpoint Depression Visibility Wind Speed Wind Dir Waves Ship Positions

Rio Blanco

Last reported at 2015-May-28 07:04 UTC. Time now 2015-May-28 14:07 UTC.
Position N 36°30' E 015°10'.

Length 286 m; draft 12.6 m.

Type: Ship (hazmat cat A). MMSI: 636092395.

Date/timePositionNaut miles runAvg speedWind from/ knotsBaromVisibWave heightAir tempDewpointWater temp
2015-May-28 07:04N 36°30' E 015°10'1015.6
2015-May-28 06:27N 36°33' E 014°59'919.6
2015-May-28 06:00N 36°36' E 014°48'511.6 330 / 71016.410.8 19.714.517.0
2015-May-28 05:33N 36°37' E 014°42'1615.8
2015-May-28 04:33N 36°43' E 014°24'1615.6
2015-May-28 03:33N 36°50' E 014°06'1615.5
2015-May-28 02:33N 36°57' E 013°49'1616.1
2015-May-28 01:34N 37°05' E 013°31'11215.9
2015-May-27 18:29N 37°56' E 011°26'9916.7
2015-May-27 12:33N 38°49' E 009°39'1615.9
2015-May-27 11:33N 38°58' E 009°22'1515.4
2015-May-27 10:33N 39°07' E 009°06'6 5.9
2015-May-27 09:33N 39°13' E 009°04'0 0.0
2015-May-27 08:33N 39°13' E 009°04'0 0.0
2015-May-27 07:33N 39°13' E 009°04'0 0.0
2015-May-27 06:33N 39°13' E 009°04'0 0.0
2015-May-27 05:33N 39°13' E 009°04'0 0.0
2015-May-27 04:33N 39°13' E 009°04'0 0.0
2015-May-27 03:33N 39°13' E 009°04'0 0.0
2015-May-27 02:33N 39°13' E 009°04'0 0.0
2015-May-27 01:33N 39°13' E 009°04'0 0.0
2015-May-27 00:33N 39°13' E 009°04'0 0.0
2015-May-26 23:33N 39°13' E 009°04'0 0.0
2015-May-26 22:33N 39°13' E 009°04'0 0.0
2015-May-26 21:33N 39°13' E 009°04'0 0.0
2015-May-26 20:33N 39°13' E 009°04'0 0.0
2015-May-26 19:33N 39°13' E 009°04'0 0.0
2015-May-26 18:33N 39°13' E 009°04'0 0.0
2015-May-26 17:33N 39°13' E 009°04'2 1.8
2015-May-26 16:33N 39°11' E 009°06'6 5.7
2015-May-26 15:34N 39°06' E 009°06'1615.6
2015-May-26 14:33N 38°51' E 008°59'1818.1
2015-May-26 13:33N 38°43' E 008°38'14018.5
2015-May-26 06:00N 38°00' E 005°48'20018.5 010 / 221014.510.8 21.513.919.0
2015-May-25 19:10N 37°08' E 001°44'1218.6
2015-May-25 18:32N 37°05' E 001°30'17218.8
2015-May-25 09:22N 36°17' W 001°57'1415.5
2015-May-25 08:27N 36°15' W 002°14'1414.2
2015-May-25 07:27N 36°13' W 002°32'1812.3
2015-May-25 06:00N 36°12' W 002°54'11116.6 080 / 201015.810.8 19.313.018.0
2015-May-24 23:17N 36°01' W 005°11'1217.1
2015-May-24 22:34N 35°57' W 005°26'10 0.6
2015-May-24 06:32N 35°52' W 005°36'9411.3
2015-May-23 22:14N 36°11' W 007°30'812.2
2015-May-23 21:33N 36°13' W 007°40'1312.8
2015-May-23 20:33N 36°16' W 007°55'1312.9
2015-May-23 19:33N 36°20' W 008°10'1313.1
2015-May-23 18:33N 36°23' W 008°26'1313.0
2015-May-23 17:33N 36°27' W 008°42'1312.9
2015-May-23 16:33N 36°30' W 008°57'1313.3
2015-May-23 15:34N 36°33' W 009°13'1313.2
2015-May-23 14:33N 36°41' W 009°26'1111.0
2015-May-23 13:33N 36°51' W 009°33'8 8.2
2015-May-23 12:33N 36°59' W 009°36'8 8.1
2015-May-23 11:33N 37°06' W 009°38'1111.2
2015-May-23 10:33N 37°17' W 009°41'1313.0
2015-May-23 09:33N 37°30' W 009°45'1313.3
2015-May-23 08:33N 37°43' W 009°49'1313.3
2015-May-23 07:33N 37°56' W 009°53'1313.2
2015-May-23 06:33N 38°08' W 009°56'1313.1
2015-May-23 05:33N 38°21' W 010°01'1313.1
2015-May-23 04:33N 38°34' W 010°04'1312.9
2015-May-23 03:33N 38°47' W 010°06'1312.8
2015-May-23 02:33N 38°60' W 010°06'1312.9
2015-May-23 01:33N 39°12' W 010°06'1413.2
2015-May-23 00:32N 39°26' W 010°06'1313.3
2015-May-22 23:33N 39°39' W 010°07'1313.0
2015-May-22 22:33N 39°52' W 010°07'1313.1
2015-May-22 21:33N 40°05' W 010°07'1413.4
2015-May-22 20:31N 40°19' W 010°06'1313.3
2015-May-22 19:32N 40°32' W 010°07'1613.4
2015-May-22 18:22N 40°48' W 010°07'1 1.7
2015-May-22 18:00N 40°48' W 010°06'1022.7 010 / 191022.2 5.4 16.511.615.0
2015-May-22 17:32N 40°58' W 010°07'1313.3
2015-May-22 16:33N 41°11' W 010°07'13312.6
2015-May-22 06:00N 43°24' W 009°54'47113.1 040 / 121030.410.8 15.3 8.315.0
2015-May-20 18:00N 49°48' W 003°18'4 8.3 290 / 181023.510.8 14.3 5.411.0
2015-May-20 17:28N 49°52' W 003°15'1413.0
2015-May-20 16:25N 49°58' W 002°56'1314.8
2015-May-20 15:32N 50°02' W 002°36'7213.8
2015-May-20 10:21N 50°21' W 000°48'4511.9
2015-May-20 06:33N 50°33' E 000°20'1514.9
2015-May-20 05:34N 50°38' E 000°42'1514.8
2015-May-20 04:34N 50°46' E 001°02'1413.8
2015-May-20 03:33N 50°55' E 001°19'1211.9
2015-May-20 02:33N 51°04' E 001°32'1010.3
2015-May-20 01:33N 51°12' E 001°40'1211.6
2015-May-20 00:34N 51°24' E 001°44'1414.3
2015-May-19 23:34N 51°38' E 001°45'1414.1
2015-May-19 22:33N 51°51' E 001°38'1111.4
2015-May-19 21:33N 51°42' E 001°28'1413.9
2015-May-19 20:33N 51°33' E 001°10'1110.6
2015-May-19 19:34N 51°29' E 000°54'1313.4
2015-May-19 18:34N 51°30' E 000°33'2 1.8
2015-May-19 17:33N 51°30' E 000°30'0 0.0
2015-May-19 16:32N 51°30' E 000°30'0 0.0
2015-May-19 15:32N 51°30' E 000°30'0 0.0
2015-May-19 14:32N 51°30' E 000°30'0 0.0
2015-May-19 13:32N 51°30' E 000°30'0 0.0
2015-May-19 12:32N 51°30' E 000°30'0 0.0
2015-May-19 11:32N 51°30' E 000°30'0 0.0
2015-May-19 10:32N 51°30' E 000°30'0 0.0
2015-May-19 09:32N 51°30' E 000°30'0 0.0
2015-May-19 08:32N 51°30' E 000°30'0 0.0
2015-May-19 07:32N 51°30' E 000°30'0 0.0
2015-May-19 06:29N 51°30' E 000°30'0 0.0
2015-May-19 05:32N 51°30' E 000°30'0 0.0
2015-May-19 04:32N 51°30' E 000°30'0 0.0
2015-May-19 03:32N 51°30' E 000°30'0 0.0
2015-May-19 02:32N 51°30' E 000°30'0 0.0
2015-May-19 01:32N 51°30' E 000°30'0 0.0
2015-May-19 00:32N 51°30' E 000°30'0 0.0
2015-May-18 23:32N 51°30' E 000°30'0 0.0
2015-May-18 22:32N 51°30' E 000°30'0 0.0
2015-May-18 21:32N 51°30' E 000°30'3 3.2
2015-May-18 20:33N 51°30' E 000°35'1515.4
2015-May-18 19:33N 51°29' E 000°59'1616.0
2015-May-18 18:34N 51°38' E 001°21'1515.2
2015-May-18 17:33N 51°51' E 001°35'9 8.6
2015-May-18 16:33N 51°49' E 001°48'1616.0
2015-May-18 15:34N 51°33' E 001°52'1312.6
2015-May-18 14:33N 51°24' E 002°06'1111.0
2015-May-18 13:33N 51°22' E 002°23'10 9.9
2015-May-18 12:33N 51°23' E 002°39'1 1.3
2015-May-18 11:31N 51°25' E 002°40'0 0.0
2015-May-18 10:31N 51°25' E 002°40'0 0.2
2015-May-18 09:31N 51°24' E 002°40'0 0.1
2015-May-18 08:10N 51°24' E 002°40'0 0.1
2015-May-18 07:31N 51°24' E 002°40'  

Dump ship's entire track history